Time;durP1;ratioP1;P1;durP2;ratioP2;P2;SDS_P1;SDS_P2;PMS_P1;PMS_P2;Temp;Humidity;BMP_temperature;BMP_pressure;BME280_temperature;BME280_humidity;BME280_pressure;Samples;Min_cycle;Max_cycle;Signal;HPM_P1;HPM_P2
2023/07/24 00:01:42;;;;;;;;;11.50;11.00;;;;;24.06;40.56;99993.11;110024;1254;20117;-36
2023/07/24 00:04:09;;;;;;;;;11.00;11.00;;;;;24.06;40.55;99991.78;110033;1268;22380;-36
2023/07/24 00:06:37;;;;;;;;;11.00;10.00;;;;;24.04;40.69;99988.93;109979;1267;22299;-36
2023/07/24 00:09:04;;;;;;;;;12.00;11.00;;;;;24.03;40.38;99988.09;109974;1262;21107;-36
2023/07/24 00:11:31;;;;;;;;;10.67;10.00;;;;;24.03;40.46;99990.40;109985;1267;19596;-37
2023/07/24 00:13:59;;;;;;;;;10.00;10.00;;;;;24.04;40.18;99987.80;110014;1259;18585;-35
2023/07/24 00:16:26;;;;;;;;;12.00;11.00;;;;;24.03;39.91;99991.43;109950;1255;20112;-36
2023/07/24 00:18:53;;;;;;;;;10.00;10.00;;;;;24.01;40.12;99995.73;109644;1253;495980;-35
2023/07/24 00:21:21;;;;;;;;;11.00;11.00;;;;;24.01;39.80;99995.64;110022;1267;19957;-35
2023/07/24 00:23:48;;;;;;;;;10.00;10.00;;;;;23.97;39.93;99998.52;110042;1267;18731;-35
2023/07/24 00:26:16;;;;;;;;;10.00;10.00;;;;;23.96;40.07;99998.91;110031;1267;19290;-36
2023/07/24 00:28:43;;;;;;;;;12.00;12.00;;;;;23.97;39.81;99998.30;110021;1267;18633;-36
2023/07/24 00:31:10;;;;;;;;;12.00;11.00;;;;;23.95;39.86;99999.93;110036;1254;20131;-36
2023/07/24 00:33:38;;;;;;;;;11.00;10.50;;;;;23.96;39.98;100004.58;110020;1267;19533;-34
2023/07/24 00:36:05;;;;;;;;;10.50;10.50;;;;;23.96;39.82;100003.13;110022;1267;18630;-36
2023/07/24 00:38:33;;;;;;;;;12.00;11.00;;;;;23.95;40.04;100003.05;110022;1262;20011;-36
2023/07/24 00:41:00;;;;;;;;;18.00;15.00;;;;;23.92;39.93;100005.54;109745;1253;19613;-36
2023/07/24 00:43:27;;;;;;;;;12.50;11.50;;;;;23.90;40.04;100002.95;109850;1254;20108;-36
2023/07/24 00:45:55;;;;;;;;;11.00;11.00;;;;;23.91;39.77;100004.19;109943;1254;20077;-36
2023/07/24 00:48:22;;;;;;;;;14.00;10.00;;;;;23.94;39.80;100004.45;109923;1267;19407;-35
2023/07/24 00:50:50;;;;;;;;;9.50;9.50;;;;;23.90;40.09;100005.30;109963;1254;20063;-35
2023/07/24 00:53:17;;;;;;;;;14.00;12.00;;;;;23.91;40.01;100002.70;110026;1254;21051;-36
2023/07/24 00:55:44;;;;;;;;;15.00;14.00;;;;;23.93;39.95;100000.98;110013;1256;20785;-36
2023/07/24 00:58:12;;;;;;;;;12.00;10.00;;;;;23.92;39.80;100004.61;109960;1254;20016;-36
2023/07/24 01:00:39;;;;;;;;;11.00;10.00;;;;;23.87;39.88;100003.98;109987;1268;22749;-35
2023/07/24 01:03:07;;;;;;;;;9.00;9.00;;;;;23.86;39.87;100002.50;109963;1254;21943;-35
2023/07/24 01:05:34;;;;;;;;;10.00;10.00;;;;;23.82;39.78;100000.83;109984;1262;19916;-35
2023/07/24 01:08:02;;;;;;;;;11.50;9.50;;;;;23.80;39.97;100001.16;109977;1254;20184;-37
2023/07/24 01:10:29;;;;;;;;;10.00;10.00;;;;;23.81;39.97;100002.23;109924;1255;20753;-36
2023/07/24 01:12:56;;;;;;;;;12.00;11.00;;;;;23.84;40.00;100005.11;110017;1254;21647;-35
2023/07/24 01:15:24;;;;;;;;;8.00;8.00;;;;;23.85;39.79;100007.61;109980;1262;20060;-38
2023/07/24 01:17:51;;;;;;;;;11.00;10.00;;;;;23.84;39.77;100015.16;109987;1262;21765;-37
2023/07/24 01:20:19;;;;;;;;;11.00;10.00;;;;;23.83;39.93;100011.02;109983;1252;19602;-36
2023/07/24 01:22:46;;;;;;;;;9.00;9.00;;;;;23.83;39.65;100013.67;109999;1254;22457;-36
2023/07/24 01:25:13;;;;;;;;;9.00;9.00;;;;;23.82;39.78;100010.31;110013;1254;20808;-35
2023/07/24 01:27:41;;;;;;;;;11.00;11.00;;;;;23.82;40.02;100013.44;109856;1253;19522;-35
2023/07/24 01:30:08;;;;;;;;;11.50;10.50;;;;;23.75;40.02;100012.82;109985;1267;18705;-35
2023/07/24 01:32:36;;;;;;;;;11.00;11.00;;;;;23.77;39.79;100012.77;110027;1267;20844;-35
2023/07/24 01:35:03;;;;;;;;;10.00;10.00;;;;;23.75;39.94;100006.30;109980;1260;23135;-36
2023/07/24 01:37:31;;;;;;;;;11.50;11.00;;;;;23.75;39.94;100009.90;109977;1267;20039;-37
2023/07/24 01:39:58;;;;;;;;;9.00;7.00;;;;;23.76;39.65;100007.66;109974;1267;19254;-37
2023/07/24 01:42:26;;;;;;;;;12.00;12.00;;;;;23.73;39.86;100005.59;109963;1253;23825;-36
2023/07/24 01:44:53;;;;;;;;;9.00;9.00;;;;;23.70;39.92;100001.55;110002;1267;19086;-36
2023/07/24 01:47:20;;;;;;;;;12.00;10.00;;;;;23.65;39.96;99994.71;109980;1254;20976;-36
2023/07/24 01:49:48;;;;;;;;;10.00;9.00;;;;;23.65;40.24;99995.10;109963;1268;20129;-36
2023/07/24 01:52:15;;;;;;;;;9.00;9.00;;;;;23.63;40.20;99991.33;110006;1267;18733;-36
2023/07/24 01:54:43;;;;;;;;;13.00;10.50;;;;;23.63;40.24;99994.32;109973;1253;20809;-36
2023/07/24 01:57:10;;;;;;;;;11.00;10.00;;;;;23.60;40.24;99998.38;109965;1254;19626;-36
2023/07/24 01:59:37;;;;;;;;;11.00;10.00;;;;;23.59;40.36;100000.42;109962;1254;21045;-37
2023/07/24 02:02:05;;;;;;;;;12.00;10.00;;;;;23.60;40.27;100001.99;109934;1253;20857;-36
2023/07/24 02:04:32;;;;;;;;;10.50;10.00;;;;;23.57;40.51;100000.59;109893;1254;20055;-36
2023/07/24 02:07:00;;;;;;;;;8.50;8.00;;;;;23.57;40.44;99995.05;109992;1254;20122;-37
2023/07/24 02:09:27;;;;;;;;;10.00;9.00;;;;;23.55;40.29;99988.25;109985;1254;20744;-36
2023/07/24 02:11:54;;;;;;;;;8.00;8.00;;;;;23.55;40.51;99984.55;109938;1262;22080;-36
2023/07/24 02:14:22;;;;;;;;;7.00;7.00;;;;;23.53;40.50;99989.05;110006;1254;20191;-36
2023/07/24 02:16:49;;;;;;;;;7.00;7.00;;;;;23.52;40.44;99982.73;109988;1254;20830;-36
2023/07/24 02:19:16;;;;;;;;;9.50;8.00;;;;;23.51;40.53;99982.91;109967;1252;19630;-36
2023/07/24 02:21:44;;;;;;;;;11.00;10.00;;;;;23.48;40.80;99991.66;109988;1267;22189;-36
2023/07/24 02:24:11;;;;;;;;;12.00;10.00;;;;;23.47;41.05;99997.21;110020;1255;20799;-36
2023/07/24 02:26:39;;;;;;;;;10.00;10.00;;;;;23.44;41.44;100000.48;109984;1267;18656;-36
2023/07/24 02:29:06;;;;;;;;;9.00;9.00;;;;;23.43;41.05;100003.19;109964;1253;20207;-36
2023/07/24 02:31:33;;;;;;;;;10.00;9.00;;;;;23.45;41.20;100005.39;109984;1267;20669;-36
2023/07/24 02:34:01;;;;;;;;;10.00;9.00;;;;;23.44;41.23;100007.66;109963;1253;18637;-36
2023/07/24 02:36:28;;;;;;;;;10.50;10.50;;;;;23.46;41.35;100002.42;109916;1254;21216;-36
2023/07/24 02:38:56;;;;;;;;;11.50;10.50;;;;;23.43;41.47;99995.21;110038;1254;20831;-36
2023/07/24 02:41:23;;;;;;;;;9.00;7.00;;;;;23.41;41.65;99994.23;110036;1253;21561;-36
2023/07/24 02:43:50;;;;;;;;;11.00;9.00;;;;;23.39;41.42;99993.18;109913;1254;20158;-36
2023/07/24 02:46:18;;;;;;;;;10.00;9.00;;;;;23.38;41.39;99991.73;109895;1260;20661;-36
2023/07/24 02:48:45;;;;;;;;;13.00;12.00;;;;;23.37;41.57;99988.04;110035;1254;20038;-36
2023/07/24 02:51:13;;;;;;;;;13.50;11.00;;;;;23.41;40.91;99983.55;110020;1254;20187;-36
2023/07/24 02:53:40;;;;;;;;;11.00;10.00;;;;;23.42;41.01;99990.38;110010;1262;20811;-35
2023/07/24 02:56:07;;;;;;;;;10.50;10.00;;;;;23.38;41.20;99991.12;109979;1254;20053;-35
2023/07/24 02:58:35;;;;;;;;;13.00;11.00;;;;;23.34;41.09;99996.67;110009;1268;20391;-35
2023/07/24 03:01:02;;;;;;;;;9.00;9.00;;;;;23.33;40.96;99996.36;110011;1254;20949;-35
2023/07/24 03:03:30;;;;;;;;;9.00;9.00;;;;;23.34;40.83;99995.64;109968;1268;22172;-36
2023/07/24 03:05:57;;;;;;;;;7.00;7.00;;;;;23.34;41.18;99994.16;109969;1254;20090;-37
2023/07/24 03:08:24;;;;;;;;;8.50;7.00;;;;;23.33;40.91;99992.38;109966;1262;21986;-35
2023/07/24 03:10:52;;;;;;;;;13.00;11.00;;;;;23.32;41.23;99988.85;109965;1260;19567;-34
2023/07/24 03:13:19;;;;;;;;;10.00;9.00;;;;;23.31;41.18;99986.31;109987;1268;18716;-37
2023/07/24 03:15:47;;;;;;;;;10.00;9.00;;;;;23.33;41.14;99982.45;110026;1253;22253;-36
2023/07/24 03:18:14;;;;;;;;;10.00;8.00;;;;;23.33;40.96;99987.62;109990;1253;20042;-38
2023/07/24 03:20:41;;;;;;;;;11.00;10.00;;;;;23.30;41.29;99992.54;110022;1254;20043;-35
2023/07/24 03:23:09;;;;;;;;;9.33;9.33;;;;;23.31;41.39;99994.28;109880;1267;19345;-36
2023/07/24 03:25:36;;;;;;;;;10.00;9.50;;;;;23.30;41.36;99997.73;109896;1254;21208;-36
2023/07/24 03:28:04;;;;;;;;;9.50;9.00;;;;;23.29;41.47;100000.89;110005;1252;18807;-36
2023/07/24 03:30:31;;;;;;;;;7.00;7.00;;;;;23.29;41.54;99994.94;109991;1254;20737;-36
2023/07/24 03:32:58;;;;;;;;;10.00;9.00;;;;;23.26;41.53;99990.66;110000;1254;19659;-35
2023/07/24 03:35:26;;;;;;;;;8.00;8.00;;;;;23.26;41.49;99998.22;110005;1254;18725;-35
2023/07/24 03:37:53;;;;;;;;;11.00;11.00;;;;;23.23;41.51;99998.32;109974;1254;23105;-36
2023/07/24 03:40:21;;;;;;;;;10.00;9.00;;;;;23.23;41.74;99995.91;109957;1262;19543;-35
2023/07/24 03:42:48;;;;;;;;;11.00;10.00;;;;;23.23;41.73;99999.86;110031;1268;18789;-36
2023/07/24 03:45:15;;;;;;;;;11.00;9.00;;;;;23.23;41.66;99997.39;109983;1253;20780;-36
2023/07/24 03:47:43;;;;;;;;;16.00;11.00;;;;;23.21;41.93;99996.02;109971;1253;22719;-36
2023/07/24 03:50:10;;;;;;;;;17.00;14.00;;;;;23.21;41.84;99994.59;109932;1262;19965;-36
2023/07/24 03:52:38;;;;;;;;;14.00;14.00;;;;;23.20;41.88;99994.02;110011;1254;20722;-36
2023/07/24 03:55:05;;;;;;;;;14.50;10.00;;;;;23.24;41.63;99995.63;109970;1267;23026;-37
2023/07/24 03:57:32;;;;;;;;;13.00;10.00;;;;;23.24;41.91;99986.60;109966;1254;20157;-36
2023/07/24 04:00:00;;;;;;;;;11.00;11.00;;;;;23.25;41.98;99986.15;109956;1254;20863;-36
2023/07/24 04:02:27;;;;;;;;;15.00;10.50;;;;;23.24;41.80;99982.52;109988;1253;20034;-37
2023/07/24 04:04:55;;;;;;;;;23.00;18.00;;;;;23.22;42.17;99985.00;109971;1252;20484;-36
2023/07/24 04:07:22;;;;;;;;;14.50;13.50;;;;;23.21;42.02;99984.59;110007;1267;19446;-36
2023/07/24 04:09:49;;;;;;;;;22.00;18.00;;;;;23.20;42.11;99982.09;109979;1252;22033;-36
2023/07/24 04:12:17;;;;;;;;;17.00;16.00;;;;;23.23;42.32;99980.12;109972;1267;18897;-36
2023/07/24 04:14:44;;;;;;;;;18.00;18.00;;;;;23.24;42.18;99982.35;109980;1267;19511;-36
2023/07/24 04:17:12;;;;;;;;;15.00;15.00;;;;;23.20;42.55;99983.77;110019;1268;18567;-36
2023/07/24 04:19:39;;;;;;;;;19.00;18.50;;;;;23.30;42.06;99990.70;109972;1254;21759;-36
2023/07/24 04:22:06;;;;;;;;;21.50;18.00;;;;;23.23;42.75;99989.02;109974;1267;20807;-36
2023/07/24 04:24:34;;;;;;;;;26.00;23.00;;;;;23.34;42.38;99990.23;109997;1254;20000;-37
2023/07/24 04:27:01;;;;;;;;;16.00;14.50;;;;;23.37;42.56;99992.45;110009;1253;20159;-37
2023/07/24 04:29:29;;;;;;;;;16.00;12.00;;;;;23.37;42.55;99988.85;109955;1254;20829;-37
2023/07/24 04:31:56;;;;;;;;;9.50;9.50;;;;;23.31;43.01;99991.61;109952;1254;20204;-37
2023/07/24 04:34:23;;;;;;;;;11.00;9.00;;;;;23.28;42.95;99990.08;109903;1267;18535;-37
2023/07/24 04:36:51;;;;;;;;;12.50;10.50;;;;;23.08;43.70;99990.55;109971;1253;22334;-35
2023/07/24 04:39:18;;;;;;;;;15.00;14.00;;;;;22.81;44.29;99990.13;110030;1267;18584;-35
2023/07/24 04:41:46;;;;;;;;;21.00;18.00;;;;;22.74;44.67;99986.33;109945;1267;18990;-35
2023/07/24 04:44:13;;;;;;;;;19.00;17.00;;;;;22.74;44.82;99985.23;109951;1253;22078;-35
2023/07/24 04:46:40;;;;;;;;;18.00;16.00;;;;;22.83;44.60;99985.89;109974;1268;18594;-36
2023/07/24 04:49:08;;;;;;;;;13.50;12.00;;;;;22.76;45.05;99988.47;109844;1268;18745;-35
2023/07/24 04:51:35;;;;;;;;;11.50;11.00;;;;;22.79;45.19;99990.00;109901;1268;20749;-35
2023/07/24 04:54:03;;;;;;;;;10.00;10.00;;;;;22.67;45.28;99988.67;110018;1264;19891;-34
2023/07/24 04:56:30;;;;;;;;;10.00;9.50;;;;;22.66;45.67;99992.25;110010;1267;18732;-35
2023/07/24 04:58:58;;;;;;;;;9.50;9.00;;;;;22.65;45.63;99996.03;109995;1254;20759;-35
2023/07/24 05:01:25;;;;;;;;;14.00;10.00;;;;;22.53;45.88;100001.04;109968;1253;21099;-36
2023/07/24 05:03:52;;;;;;;;;8.00;8.00;;;;;22.46;46.38;99999.76;109961;1268;18737;-35
2023/07/24 05:06:20;;;;;;;;;10.00;8.33;;;;;22.52;46.40;99999.16;109825;1264;19387;-35
2023/07/24 05:08:47;;;;;;;;;13.00;12.00;;;;;22.49;46.36;100002.27;109882;1254;22699;-35
2023/07/24 05:11:15;;;;;;;;;26.00;24.00;;;;;22.46;46.76;100003.35;109872;1268;18815;-35
2023/07/24 05:13:42;;;;;;;;;25.50;25.00;;;;;22.56;46.46;100007.77;110020;1268;19383;-35
2023/07/24 05:16:09;;;;;;;;;18.00;14.00;;;;;22.60;46.38;100007.36;109985;1268;18582;-36
2023/07/24 05:18:37;;;;;;;;;17.00;17.00;;;;;22.85;45.59;100012.56;109971;1252;20080;-36
2023/07/24 05:21:04;;;;;;;;;16.50;16.50;;;;;22.98;45.18;100014.28;110019;1254;20652;-36
2023/07/24 05:23:32;;;;;;;;;14.00;13.50;;;;;23.11;44.98;100014.14;110017;1253;18584;-36
2023/07/24 05:25:59;;;;;;;;;13.00;13.00;;;;;23.23;44.81;100014.55;109967;1268;20142;-36
2023/07/24 05:28:27;;;;;;;;;13.00;12.50;;;;;23.33;45.28;100013.20;109968;1269;20888;-35
2023/07/24 05:30:54;;;;;;;;;13.00;13.00;;;;;23.40;45.21;100011.96;109990;1254;20044;-36
2023/07/24 05:33:22;;;;;;;;;11.00;10.00;;;;;23.47;45.29;100013.39;109991;1252;20186;-36
2023/07/24 05:35:49;;;;;;;;;9.00;7.00;;;;;23.54;45.26;100012.71;109925;1254;20903;-35
2023/07/24 05:38:16;;;;;;;;;11.00;9.50;;;;;23.61;45.68;100012.91;109932;1253;18725;-35
2023/07/24 05:40:44;;;;;;;;;7.00;7.00;;;;;23.67;46.27;100023.17;109994;1254;20105;-36
2023/07/24 05:43:11;;;;;;;;;9.50;8.00;;;;;23.70;45.95;100029.77;110029;1267;22187;-36
2023/07/24 05:45:39;;;;;;;;;10.00;10.00;;;;;23.74;46.30;100034.15;110045;1253;19643;-36
2023/07/24 05:48:06;;;;;;;;;10.00;9.00;;;;;23.76;46.55;100037.67;110058;1263;20028;-36
2023/07/24 05:50:33;;;;;;;;;10.00;10.00;;;;;23.70;47.21;100040.21;110011;1267;19525;-35
2023/07/24 05:53:01;;;;;;;;;13.00;11.00;;;;;23.51;48.30;100041.27;110012;1253;19950;-36
2023/07/24 05:55:28;;;;;;;;;15.00;15.00;;;;;23.41;49.22;100036.54;109996;1267;18864;-36
2023/07/24 05:57:55;;;;;;;;;12.00;10.00;;;;;23.36;49.82;100023.17;110024;1267;19388;-36
2023/07/24 06:00:23;;;;;;;;;14.00;10.00;;;;;23.32;49.75;100020.33;109973;1262;20043;-36
2023/07/24 06:02:50;;;;;;;;;11.00;10.00;;;;;23.32;50.20;100020.21;109988;1261;20077;-36
2023/07/24 06:05:19;;;;;;;;;7.00;7.00;;;;;23.28;50.96;100016.59;109981;1267;22182;-36
2023/07/24 06:07:47;;;;;;;;;9.50;9.00;;;;;23.24;52.02;100014.52;109982;1253;19993;-35
2023/07/24 06:10:14;;;;;;;;;13.00;10.00;;;;;23.15;51.98;100017.45;109985;1253;21290;-35
2023/07/24 06:12:42;;;;;;;;;11.00;11.00;;;;;23.07;51.95;100019.63;109982;1254;22229;-35
2023/07/24 06:15:09;;;;;;;;;10.00;10.00;;;;;22.94;52.29;100021.08;110018;1267;18618;-35
2023/07/24 06:17:36;;;;;;;;;9.00;9.00;;;;;22.93;52.20;100027.59;109966;1262;20303;-35
2023/07/24 06:20:04;;;;;;;;;12.00;10.00;;;;;22.88;52.20;100025.05;109969;1267;19421;-36
2023/07/24 06:22:31;;;;;;;;;13.00;10.00;;;;;22.91;52.30;100027.20;109987;1254;21630;-36
2023/07/24 06:24:59;;;;;;;;;10.00;9.00;;;;;22.92;52.16;100026.42;110004;1267;18803;-35
2023/07/24 06:27:26;;;;;;;;;8.50;8.50;;;;;22.92;52.14;100030.29;109978;1254;20820;-35
2023/07/24 06:29:53;;;;;;;;;9.50;9.00;;;;;22.95;52.14;100030.17;109933;1254;20086;-35
2023/07/24 06:32:21;;;;;;;;;14.00;13.00;;;;;22.82;52.70;100028.49;109976;1253;20125;-36
2023/07/24 06:34:48;;;;;;;;;10.00;9.00;;;;;22.80;53.07;100031.33;109914;1259;20552;-36
2023/07/24 06:37:16;;;;;;;;;11.00;9.50;;;;;22.80;53.01;100031.38;109900;1254;20128;-35
2023/07/24 06:39:43;;;;;;;;;11.00;9.50;;;;;22.78;53.32;100031.90;109652;1254;21294;-35
2023/07/24 06:42:11;;;;;;;;;12.00;10.00;;;;;22.85;53.43;100038.02;109645;1269;19535;-36
2023/07/24 06:44:38;;;;;;;;;15.00;13.50;;;;;22.90;53.84;100034.64;109638;1268;18709;-35
2023/07/24 06:47:06;;;;;;;;;19.00;16.50;;;;;22.89;54.18;100040.84;109590;1253;21389;-34
2023/07/24 06:49:33;;;;;;;;;47.00;35.00;;;;;22.90;54.03;100032.56;109641;1254;21232;-35
2023/07/24 06:52:00;;;;;;;;;84.00;64.00;;;;;23.09;53.19;100026.41;109579;1269;18838;-36
2023/07/24 06:54:28;;;;;;;;;86.50;63.00;;;;;23.24;53.26;100026.48;109668;1254;20186;-35
2023/07/24 06:56:55;;;;;;;;;91.50;67.50;;;;;23.36;52.58;100022.31;109668;1255;20804;-35
2023/07/24 06:59:23;;;;;;;;;83.00;62.00;;;;;23.45;52.49;100018.52;109699;1261;19910;-36
2023/07/24 07:01:50;;;;;;;;;85.00;60.50;;;;;23.50;52.36;100006.10;109577;1254;20066;-36
2023/07/24 07:04:17;;;;;;;;;69.00;51.00;;;;;23.52;51.68;100001.09;109561;1254;20812;-37
2023/07/24 07:06:45;;;;;;;;;86.33;60.67;;;;;23.50;52.05;99999.77;109577;1254;20040;-36
2023/07/24 07:09:12;;;;;;;;;87.00;63.00;;;;;23.58;52.03;99990.52;109601;1254;20329;-36
2023/07/24 07:11:39;;;;;;;;;82.00;60.00;;;;;23.65;52.12;99991.66;109592;1253;22308;-36
2023/07/24 07:14:08;;;;;;;;;69.00;50.00;;;;;23.72;52.15;99991.01;109602;1254;20028;-36
2023/07/24 07:16:36;;;;;;;;;48.50;39.00;;;;;23.76;51.89;99982.27;109666;1254;20156;-37
2023/07/24 07:19:03;;;;;;;;;35.00;31.00;;;;;23.72;51.91;99978.98;109657;1254;20798;-37
2023/07/24 07:21:30;;;;;;;;;26.67;22.67;;;;;23.68;51.87;99981.91;109713;1260;22752;-36
2023/07/24 07:23:58;;;;;;;;;21.00;19.50;;;;;23.65;52.20;99985.00;109934;1267;18689;-36
2023/07/24 07:26:26;;;;;;;;;20.00;18.00;;;;;23.65;52.64;99981.92;109958;1261;20698;-36
2023/07/24 07:28:54;;;;;;;;;21.50;17.50;;;;;23.66;52.84;99978.73;109958;1254;20000;-36
2023/07/24 07:31:21;;;;;;;;;20.50;14.50;;;;;23.59;52.92;99970.19;109955;1252;20222;-36
2023/07/24 07:33:49;;;;;;;;;15.00;14.00;;;;;23.54;53.24;99968.47;109968;1254;22123;-37
2023/07/24 07:36:17;;;;;;;;;15.50;13.00;;;;;23.63;53.05;99959.11;109967;1267;18556;-36
2023/07/24 07:38:45;;;;;;;;;11.00;10.00;;;;;23.65;52.67;99954.54;109980;1255;20174;-36
2023/07/24 07:41:12;;;;;;;;;11.00;11.00;;;;;23.67;52.71;99952.08;109939;1261;22073;-37
2023/07/24 07:43:39;;;;;;;;;12.00;11.00;;;;;23.70;52.48;99955.68;109990;1267;19931;-37
2023/07/24 07:46:07;;;;;;;;;12.00;10.00;;;;;23.75;52.40;99953.76;109984;1252;20111;-37
2023/07/24 07:48:34;;;;;;;;;11.50;10.50;;;;;23.78;52.06;99949.47;109926;1267;19721;-36
2023/07/24 07:51:02;;;;;;;;;14.00;11.00;;;;;23.80;52.28;99954.38;109944;1268;22246;-36
2023/07/24 07:53:29;;;;;;;;;10.00;8.00;;;;;23.84;52.27;99955.17;109932;1262;20177;-36
2023/07/24 07:55:56;;;;;;;;;9.00;7.00;;;;;23.86;52.60;99952.83;109927;1254;20875;-36
2023/07/24 07:58:24;;;;;;;;;9.00;7.00;;;;;23.92;52.70;99950.13;109911;1267;20136;-35
2023/07/24 08:00:51;;;;;;;;;7.00;6.00;;;;;23.95;52.93;99951.79;109925;1267;21120;-35
2023/07/24 08:03:19;;;;;;;;;9.00;7.00;;;;;23.94;52.91;99945.48;109651;1253;19364;-35
2023/07/24 08:05:46;;;;;;;;;7.00;6.00;;;;;23.95;52.74;99940.69;109577;1254;19626;-35
2023/07/24 08:08:14;;;;;;;;;5.50;5.50;;;;;23.95;52.78;99936.20;109624;1268;18725;-35
2023/07/24 08:10:41;;;;;;;;;6.00;5.50;;;;;23.95;52.50;99931.06;109585;1268;19368;-35
2023/07/24 08:13:08;;;;;;;;;6.50;6.50;;;;;23.98;52.34;99929.79;109567;1253;20986;-35
2023/07/24 08:15:36;;;;;;;;;8.00;7.00;;;;;24.00;52.17;99929.55;109784;1267;18548;-36
2023/07/24 08:18:03;;;;;;;;;8.00;8.00;;;;;24.05;53.02;99928.63;109884;1267;21082;-37
2023/07/24 08:20:31;;;;;;;;;10.00;10.00;;;;;23.97;54.02;99931.43;109859;1267;19533;-36
2023/07/24 08:23:02;;;;;;;;;12.00;10.00;;;;;23.91;55.28;99934.86;109855;1256;18869;-37
2023/07/24 08:25:30;;;;;;;;;10.67;9.00;;;;;23.82;55.83;99929.95;109891;1267;22177;-35
2023/07/24 08:27:58;;;;;;;;;10.00;10.00;;;;;23.74;56.56;99920.45;109908;1260;22149;-36
2023/07/24 08:30:25;;;;;;;;;11.00;11.00;;;;;23.76;56.65;99922.17;109915;1267;19503;-34
2023/07/24 08:32:53;;;;;;;;;12.00;10.50;;;;;23.79;56.52;99923.45;109899;1267;20707;-36
2023/07/24 08:35:22;;;;;;;;;9.00;8.33;;;;;23.80;56.99;99918.95;109950;1251;19922;-35
2023/07/24 08:37:49;;;;;;;;;9.00;9.00;;;;;23.83;57.18;99912.70;109979;1253;20951;-36
2023/07/24 08:40:18;;;;;;;;;10.50;9.50;;;;;23.80;56.81;99910.46;109977;1267;20922;-37
2023/07/24 08:42:45;;;;;;;;;8.33;8.33;;;;;23.76;56.96;99905.15;110017;1268;18446;-36
2023/07/24 08:45:14;;;;;;;;;10.00;7.00;;;;;23.83;56.55;99897.96;109999;1267;21237;-37
2023/07/24 08:47:41;;;;;;;;;10.50;8.00;;;;;23.92;55.83;99896.52;109976;1268;19615;-35
2023/07/24 08:50:11;;;;;;;;;6.00;6.00;;;;;23.99;55.33;99897.27;109500;1269;20265;-35
2023/07/24 08:52:38;;;;;;;;;9.50;8.00;;;;;23.98;55.50;99894.71;109944;1267;19662;-35
2023/07/24 08:55:06;;;;;;;;;6.00;6.00;;;;;23.95;55.76;99894.41;109923;1267;23880;-36
2023/07/24 08:57:34;;;;;;;;;6.33;6.33;;;;;24.01;55.88;99888.39;109897;1267;19523;-36
2023/07/24 09:00:04;;;;;;;;;7.00;7.00;;;;;24.06;56.77;99886.49;109947;1252;22801;-36
2023/07/24 09:02:31;;;;;;;;;7.00;7.00;;;;;24.12;56.52;99885.59;109963;1254;20940;-36
2023/07/24 09:04:59;;;;;;;;;6.00;6.00;;;;;24.10;55.51;99878.54;109955;1254;22229;-36
2023/07/24 09:07:26;;;;;;;;;9.00;6.00;;;;;24.11;54.84;99873.41;109942;1261;18699;-36
2023/07/24 09:09:54;;;;;;;;;8.33;8.33;;;;;24.11;54.54;99873.84;109988;1253;21362;-36
2023/07/24 09:12:21;;;;;;;;;9.00;7.00;;;;;24.22;54.74;99867.44;110033;1267;18350;-35
2023/07/24 09:14:48;;;;;;;;;6.00;6.00;;;;;24.15;53.53;99868.27;110011;1267;18648;-36
2023/07/24 09:17:16;;;;;;;;;9.00;6.00;;;;;24.12;52.26;99864.35;109995;1268;19772;-35
2023/07/24 09:19:44;;;;;;;;;6.00;6.00;;;;;24.13;51.08;99857.76;109975;1253;21946;-36
2023/07/24 09:22:12;;;;;;;;;6.00;6.00;;;;;24.23;50.66;99853.27;109948;1268;18821;-36
2023/07/24 09:24:39;;;;;;;;;;;;;;;24.31;50.18;99846.86;109982;1268;19393;-35
2023/07/24 09:27:07;;;;;;;;;6.50;6.50;;;;;24.29;49.55;99839.55;109969;1253;19547;-36
2023/07/24 09:29:34;;;;;;;;;6.00;6.00;;;;;24.34;49.02;99833.86;110008;1267;22778;-36
2023/07/24 09:32:02;;;;;;;;;7.00;7.00;;;;;24.37;48.42;99837.10;109992;1268;19366;-36
2023/07/24 09:34:29;;;;;;;;;6.00;6.00;;;;;24.31;48.43;99832.09;109963;1254;19637;-35
2023/07/24 09:36:56;;;;;;;;;7.00;6.00;;;;;24.39;48.27;99833.20;109978;1268;18896;-36
2023/07/24 09:39:24;;;;;;;;;6.00;6.00;;;;;24.38;47.89;99829.79;110012;1267;20699;-36
2023/07/24 09:41:52;;;;;;;;;6.50;6.00;;;;;24.44;47.68;99827.98;109972;1255;19551;-35
2023/07/24 09:44:19;;;;;;;;;6.33;6.00;;;;;24.63;47.52;99818.62;109957;1254;20032;-35
2023/07/24 09:46:47;;;;;;;;;6.00;6.00;;;;;24.62;47.33;99816.84;109988;1267;19822;-35
2023/07/24 09:49:14;;;;;;;;;5.00;5.00;;;;;24.61;47.31;99814.77;109976;1268;18512;-36
2023/07/24 09:51:41;;;;;;;;;5.00;5.00;;;;;24.56;47.60;99816.80;109994;1268;18599;-36
2023/07/24 09:54:09;;;;;;;;;6.50;6.50;;;;;24.78;47.35;99809.31;109992;1262;22028;-35
2023/07/24 09:56:36;;;;;;;;;7.50;6.50;;;;;24.80;47.00;99809.09;109979;1254;19845;-37
2023/07/24 09:59:04;;;;;;;;;6.00;6.00;;;;;24.71;46.07;99803.83;109985;1267;18635;-36
2023/07/24 10:01:32;;;;;;;;;7.00;6.00;;;;;24.71;46.02;99805.37;109894;1253;19395;-35
2023/07/24 10:03:59;;;;;;;;;6.50;6.00;;;;;24.85;45.88;99808.77;109970;1267;18399;-36
2023/07/24 10:06:27;;;;;;;;;7.00;7.00;;;;;24.89;45.71;99799.89;109467;1268;19916;-37
2023/07/24 10:08:55;;;;;;;;;6.00;6.00;;;;;24.91;45.47;99799.60;109968;1259;19459;-37
2023/07/24 10:11:22;;;;;;;;;6.50;6.00;;;;;24.86;45.56;99795.15;110001;1253;19517;-37
2023/07/24 10:13:50;;;;;;;;;6.00;6.00;;;;;25.00;45.65;99790.70;109982;1267;20164;-37
2023/07/24 10:16:18;;;;;;;;;6.50;6.50;;;;;24.92;45.13;99778.69;109946;1267;20589;-35
2023/07/24 10:18:45;;;;;;;;;5.00;5.00;;;;;25.01;44.91;99776.91;109888;1267;19708;-36
2023/07/24 10:21:13;;;;;;;;;6.00;5.00;;;;;24.96;45.15;99772.56;110002;1267;20063;-36
2023/07/24 10:23:41;;;;;;;;;7.00;6.00;;;;;24.96;45.17;99773.83;109974;1254;21275;-37
2023/07/24 10:26:08;;;;;;;;;5.00;5.00;;;;;24.99;45.06;99766.83;109971;1268;18317;-36
2023/07/24 10:28:38;;;;;;;;;7.00;7.00;;;;;24.92;45.11;99766.83;109991;1268;22741;-36
2023/07/24 10:31:08;;;;;;;;;8.00;7.00;;;;;24.98;44.89;99763.54;109934;1267;20779;-36
2023/07/24 10:33:37;;;;;;;;;7.00;6.00;;;;;24.95;44.61;99766.19;109981;1253;18565;-35
2023/07/24 10:36:04;;;;;;;;;6.00;6.00;;;;;24.87;44.76;99764.98;110014;1253;19071;-36
2023/07/24 10:38:33;;;;;;;;;10.00;7.00;;;;;24.86;45.14;99756.73;109992;1267;20747;-36
2023/07/24 10:41:02;;;;;;;;;6.00;6.00;;;;;24.85;45.26;99753.28;109992;1253;18695;-36
2023/07/24 10:43:30;;;;;;;;;7.00;7.00;;;;;24.88;45.24;99742.61;109974;1267;21174;-36
2023/07/24 10:45:57;;;;;;;;;6.67;6.67;;;;;24.99;44.98;99741.73;109972;1267;20513;-37
2023/07/24 10:48:26;;;;;;;;;9.00;7.50;;;;;25.03;45.04;99742.70;109967;1267;18682;-36
2023/07/24 10:50:54;;;;;;;;;10.00;8.00;;;;;25.00;45.03;99736.33;109989;1253;20023;-36
2023/07/24 10:53:22;;;;;;;;;13.00;13.00;;;;;25.10;45.52;99739.13;109940;1267;19521;-35
2023/07/24 10:55:50;;;;;;;;;13.00;12.00;;;;;25.16;45.59;99734.92;109742;1268;18883;-36
2023/07/24 10:58:18;;;;;;;;;;;;;;;25.15;46.29;99734.02;109913;1253;22778;-35
2023/07/24 11:00:46;;;;;;;;;15.00;12.00;;;;;25.08;47.41;99733.48;109929;1261;20748;-35
2023/07/24 11:03:13;;;;;;;;;11.00;11.00;;;;;25.21;47.02;99735.12;109970;1254;20810;-36
2023/07/24 11:05:41;;;;;;;;;11.00;10.00;;;;;25.23;46.46;99733.34;110009;1262;20113;-36
2023/07/24 11:08:09;;;;;;;;;11.00;11.00;;;;;25.14;46.86;99737.25;109990;1253;21980;-35
2023/07/24 11:10:36;;;;;;;;;10.50;10.00;;;;;25.13;46.68;99735.67;109998;1268;18547;-35
2023/07/24 11:13:03;;;;;;;;;13.00;11.00;;;;;25.08;47.52;99729.81;109945;1254;20152;-36
2023/07/24 11:15:31;;;;;;;;;10.67;10.33;;;;;25.05;48.25;99724.81;109974;1253;21875;-38